createdAt,value
2023-04-24T00:00:53.296Z,99056.88
2023-04-24T00:03:42.254Z,99049.88
2023-04-24T00:06:34.078Z,99052.81
2023-04-24T00:09:22.604Z,99053.94
2023-04-24T00:12:11.265Z,99055.25
2023-04-24T00:14:59.810Z,99054.28
2023-04-24T00:17:49.642Z,99043.25
2023-04-24T00:20:38.450Z,99050.34
2023-04-24T00:23:26.925Z,99058.91
2023-04-24T00:26:15.582Z,99059.81
2023-04-24T00:29:04.153Z,99068.22
2023-04-24T00:31:52.760Z,99063.38
2023-04-24T00:34:42.843Z,99062.91
2023-04-24T00:37:31.281Z,99060.06
2023-04-24T00:40:19.849Z,99050.91
2023-04-24T00:43:10.440Z,99058.34
2023-04-24T00:46:00.624Z,99062.06
2023-04-24T00:48:49.178Z,99048.06
2023-04-24T00:51:39.011Z,99052.28
2023-04-24T00:54:27.438Z,99019.41
2023-04-24T00:57:16.671Z,99043.47
2023-04-24T01:00:12.773Z,99044.16
2023-04-24T01:03:03.929Z,99050.91
2023-04-24T01:05:52.704Z,99041.25
2023-04-24T01:08:42.930Z,99033.88
2023-04-24T01:11:32.071Z,99029.47
2023-04-24T01:14:20.737Z,99028.09
2023-04-24T01:17:10.208Z,99039.84
2023-04-24T01:19:58.771Z,99025.31
2023-04-24T01:22:48.601Z,99041.63
2023-04-24T01:25:37.289Z,98974.66
2023-04-24T01:28:25.788Z,99037.53
2023-04-24T01:31:14.271Z,99034.06
2023-04-24T01:34:03.252Z,99038.91
2023-04-24T01:36:51.964Z,99037.25
2023-04-24T01:39:42.240Z,99043.63
2023-04-24T01:42:31.017Z,99032.81
2023-04-24T01:45:19.468Z,99038.97
2023-04-24T01:48:07.933Z,99038.84
2023-04-24T01:50:56.698Z,99032.56
2023-04-24T01:53:45.166Z,99032.88
2023-04-24T01:56:36.331Z,99021.88
2023-04-24T01:59:25.568Z,99027.47
2023-04-24T02:02:14.109Z,99023.41
2023-04-24T02:05:03.123Z,99013.28
2023-04-24T02:07:51.572Z,99031.38
2023-04-24T02:10:40.050Z,99025.94
2023-04-24T02:13:29.936Z,99022.91
2023-04-24T02:16:18.347Z,99020.97
2023-04-24T02:19:06.900Z,99019.97
2023-04-24T02:21:55.469Z,99033.91
2023-04-24T02:24:44.030Z,99039.00
2023-04-24T02:27:32.506Z,99037.28
2023-04-24T02:30:22.578Z,99031.41
2023-04-24T02:33:11.008Z,99033.69
2023-04-24T02:35:59.507Z,99035.63
2023-04-24T02:38:47.889Z,99034.47
2023-04-24T02:41:36.673Z,99039.00
2023-04-24T02:44:25.216Z,99041.38
2023-04-24T02:47:14.988Z,99035.06
2023-04-24T02:50:03.828Z,99033.69
2023-04-24T02:52:52.292Z,99040.03
2023-04-24T02:55:40.742Z,99040.28
2023-04-24T02:58:29.198Z,99047.38
2023-04-24T03:01:18.926Z,99051.41
2023-04-24T03:04:09.013Z,99046.56
2023-04-24T03:06:57.705Z,99063.94
2023-04-24T03:09:46.246Z,99060.50
2023-04-24T03:12:34.766Z,99055.41
2023-04-24T03:15:23.246Z,99064.97
2023-04-24T03:18:11.813Z,99063.53
2023-04-24T03:21:01.702Z,99049.56
2023-04-24T03:23:50.165Z,99066.34
2023-04-24T03:26:38.619Z,99070.34
2023-04-24T03:29:28.708Z,99083.22
2023-04-24T03:32:18.342Z,99089.66
2023-04-24T03:35:08.116Z,99093.50
2023-04-24T03:37:57.881Z,99097.56
2023-04-24T03:40:46.377Z,99113.56
2023-04-24T03:43:35.630Z,99104.72
2023-04-24T03:46:24.188Z,99120.47
2023-04-24T03:49:12.643Z,99113.69
2023-04-24T03:52:01.405Z,99116.38
2023-04-24T03:54:51.230Z,99118.22
2023-04-24T03:57:39.763Z,99120.22
2023-04-24T04:00:28.600Z,99126.50
2023-04-24T04:03:17.394Z,99092.66
2023-04-24T04:06:06.205Z,99134.22
2023-04-24T04:08:54.679Z,99132.56
2023-04-24T04:11:44.559Z,99141.69
2023-04-24T04:14:33.118Z,99107.09
2023-04-24T04:17:21.657Z,99143.63
2023-04-24T04:20:11.754Z,99150.97
2023-04-24T04:23:00.227Z,99154.09
2023-04-24T04:25:48.838Z,99159.69
2023-04-24T04:28:38.974Z,99149.66
2023-04-24T04:31:27.574Z,99174.09
2023-04-24T04:34:16.138Z,99169.84
2023-04-24T04:37:04.599Z,99173.34
2023-04-24T04:39:54.467Z,99156.50
2023-04-24T04:42:43.595Z,99176.13
2023-04-24T04:45:33.691Z,99177.66
2023-04-24T04:48:22.289Z,99181.59
2023-04-24T04:51:10.736Z,99188.06
2023-04-24T04:53:59.309Z,99195.59
2023-04-24T04:56:48.493Z,99201.63
2023-04-24T04:59:38.130Z,99202.69
2023-04-24T05:02:28.182Z,99200.47
2023-04-24T05:05:18.089Z,99203.25
2023-04-24T05:08:08.911Z,99208.28
2023-04-24T05:10:59.755Z,99211.47
2023-04-24T05:13:48.277Z,99207.75
2023-04-24T05:16:37.909Z,99201.44
2023-04-24T05:19:27.823Z,99215.84
2023-04-24T05:22:16.478Z,99206.53
2023-04-24T05:25:05.553Z,99214.81
2023-04-24T05:27:54.354Z,99228.63
2023-04-24T05:30:43.248Z,99197.44
2023-04-24T05:33:31.785Z,99231.56
2023-04-24T05:36:21.589Z,99239.75
2023-04-24T05:39:10.240Z,99232.56
2023-04-24T05:41:59.472Z,99243.31
2023-04-24T05:44:47.955Z,99225.72
2023-04-24T05:47:36.544Z,99224.41
2023-04-24T05:50:25.316Z,99251.16
2023-04-24T05:53:15.192Z,99251.88
2023-04-24T05:56:03.875Z,99254.91
2023-04-24T05:58:52.326Z,99255.03
2023-04-24T06:01:41.663Z,99253.63
2023-04-24T06:04:30.516Z,99255.84
2023-04-24T06:07:19.401Z,99258.28
2023-04-24T06:10:10.347Z,99220.34
2023-04-24T06:13:01.212Z,99259.81
2023-04-24T06:15:49.748Z,99253.03
2023-04-24T06:18:38.298Z,99274.06
2023-04-24T06:21:26.813Z,99274.28
2023-04-24T06:24:17.005Z,99285.50
2023-04-24T06:27:06.986Z,99276.13
2023-04-24T06:29:56.304Z,99274.56
2023-04-24T06:32:44.923Z,99282.72
2023-04-24T06:35:33.453Z,99287.72
2023-04-24T06:38:22.373Z,99300.94
2023-04-24T06:41:11.984Z,99301.75
2023-04-24T06:44:01.805Z,99317.41
2023-04-24T06:46:50.379Z,99320.22
2023-04-24T06:49:39.506Z,99318.56
2023-04-24T06:52:27.967Z,99318.97
2023-04-24T06:55:17.532Z,99322.50
2023-04-24T06:58:07.076Z,99328.53
2023-04-24T07:00:56.964Z,99322.28
2023-04-24T07:03:45.834Z,99321.09
2023-04-24T07:06:34.470Z,99347.25
2023-04-24T07:09:23.016Z,99334.28
2023-04-24T07:12:12.265Z,99343.72
2023-04-24T07:15:01.070Z,99345.03
2023-04-24T07:17:51.006Z,99353.22
2023-04-24T07:20:39.567Z,99354.06
2023-04-24T07:23:28.450Z,99349.72
2023-04-24T07:26:16.969Z,99354.56
2023-04-24T07:29:05.498Z,99353.03
2023-04-24T07:31:55.091Z,99355.25
2023-04-24T07:34:45.062Z,99357.28
2023-04-24T07:37:33.602Z,99363.66
2023-04-24T07:40:22.486Z,99372.81
2023-04-24T07:43:10.955Z,99338.63
2023-04-24T07:45:59.498Z,99366.34
2023-04-24T07:48:58.568Z,99373.47
2023-04-24T07:51:52.020Z,99367.41
2023-04-24T07:54:40.622Z,99373.28
2023-04-24T07:57:29.106Z,99391.53
2023-04-24T08:00:18.220Z,99398.81
2023-04-24T08:03:06.836Z,99412.47
2023-04-24T08:05:55.576Z,99398.09
2023-04-24T08:08:45.477Z,99423.22
2023-04-24T08:11:34.036Z,99419.22
2023-04-24T08:14:22.598Z,99424.59
2023-04-24T08:17:11.248Z,99392.06
2023-04-24T08:20:02.353Z,99428.59
2023-04-24T08:22:51.228Z,99427.09
2023-04-24T08:25:41.169Z,99438.09
2023-04-24T08:28:29.624Z,99428.63
2023-04-24T08:31:18.169Z,99454.59
2023-04-24T08:34:06.669Z,99445.34
2023-04-24T08:36:56.064Z,99435.84
2023-04-24T08:39:44.865Z,99464.22
2023-04-24T08:42:36.696Z,99452.22
2023-04-24T08:45:25.817Z,99432.88
2023-04-24T08:48:27.251Z,99458.75
2023-04-24T08:51:16.217Z,99455.00
2023-04-24T08:54:05.119Z,99444.09
2023-04-24T08:56:56.010Z,99460.22
2023-04-24T08:59:46.604Z,99462.94
2023-04-24T09:02:36.100Z,99468.31
2023-04-24T09:05:27.770Z,99471.88
2023-04-24T09:08:18.556Z,99476.16
2023-04-24T09:11:07.090Z,99476.44
2023-04-24T09:13:55.941Z,99479.59
2023-04-24T09:16:45.885Z,99473.16
2023-04-24T09:19:34.413Z,99482.22
2023-04-24T09:22:23.362Z,99473.28
2023-04-24T09:25:13.493Z,99493.00
2023-04-24T09:28:03.944Z,99486.00
2023-04-24T09:31:04.538Z,99498.03
2023-04-24T09:34:01.554Z,99487.16
2023-04-24T09:36:50.718Z,99489.47
2023-04-24T09:39:39.150Z,99503.44
2023-04-24T09:42:31.473Z,99501.16
2023-04-24T09:45:20.468Z,99514.16
2023-04-24T09:48:11.774Z,99513.34
2023-04-24T09:51:04.040Z,99509.59
2023-04-24T09:53:54.961Z,99512.88
2023-04-24T09:56:45.293Z,99500.81
2023-04-24T09:59:36.104Z,99499.22
2023-04-24T10:02:25.963Z,99530.84
2023-04-24T10:05:14.479Z,99523.44
2023-04-24T10:08:06.044Z,99528.38
2023-04-24T10:10:54.615Z,99530.34
2023-04-24T10:13:43.429Z,99532.66
2023-04-24T10:16:32.231Z,99535.00
2023-04-24T10:19:20.998Z,99533.03
2023-04-24T10:22:10.118Z,99537.78
2023-04-24T10:25:00.927Z,99532.75
2023-04-24T10:27:50.598Z,99532.97
2023-04-24T10:30:39.186Z,99526.03
2023-04-24T10:33:28.263Z,99507.16
2023-04-24T10:36:17.476Z,99539.91
2023-04-24T10:39:09.004Z,99553.63
2023-04-24T10:41:59.322Z,99550.38
2023-04-24T10:44:50.079Z,99556.28
2023-04-24T10:47:42.448Z,99559.81
2023-04-24T10:50:32.195Z,99567.38
2023-04-24T10:53:22.441Z,99567.25
2023-04-24T10:56:11.597Z,99556.50
2023-04-24T10:59:03.378Z,99567.38
2023-04-24T11:01:55.386Z,99564.44
2023-04-24T11:04:44.615Z,99559.06
2023-04-24T11:08:11.987Z,99568.75
2023-04-24T11:11:03.493Z,99571.31
2023-04-24T11:14:09.678Z,99566.53
2023-04-24T11:16:58.259Z,99579.44
2023-04-24T11:19:53.569Z,99565.00
2023-04-24T11:22:43.076Z,99550.09
2023-04-24T11:25:33.054Z,99575.28
2023-04-24T11:28:21.728Z,99570.44
2023-04-24T11:31:38.969Z,99564.66
2023-04-24T11:34:28.092Z,99565.59
2023-04-24T11:37:16.947Z,99554.97
2023-04-24T11:40:07.062Z,99578.88
2023-04-24T11:42:56.366Z,99546.53
2023-04-24T11:45:50.193Z,99576.00
2023-04-24T11:48:41.269Z,99583.91
2023-04-24T11:51:33.819Z,99599.38
2023-04-24T11:54:28.782Z,99599.34
2023-04-24T11:57:17.325Z,99591.50
2023-04-24T12:00:07.708Z,99610.34
2023-04-24T12:03:07.771Z,99611.34
2023-04-24T12:06:08.786Z,99609.25
2023-04-24T12:09:04.964Z,99606.16
2023-04-24T12:11:58.851Z,99622.72
2023-04-24T12:14:49.939Z,99610.66
2023-04-24T12:17:38.699Z,99609.69
2023-04-24T12:20:28.576Z,99617.00
2023-04-24T12:23:20.271Z,99619.56
2023-04-24T12:26:08.742Z,99618.66
2023-04-24T12:28:57.217Z,99621.03
2023-04-24T12:31:45.689Z,99605.72
2023-04-24T12:34:34.217Z,99606.56
2023-04-24T12:37:22.791Z,99613.59
2023-04-24T12:40:13.968Z,99603.38
2023-04-24T12:43:02.751Z,99603.25
2023-04-24T12:45:51.190Z,99605.63
2023-04-24T12:48:39.889Z,99603.50
2023-04-24T12:51:28.579Z,99604.94
2023-04-24T12:54:17.160Z,99567.41
2023-04-24T12:57:06.998Z,99603.63
2023-04-24T12:59:56.365Z,99615.44
2023-04-24T13:02:45.069Z,99601.28
2023-04-24T13:05:33.505Z,99595.34
2023-04-24T13:08:22.024Z,99596.13
2023-04-24T13:11:10.507Z,99600.63
2023-04-24T13:14:00.427Z,99581.88
2023-04-24T13:16:49.249Z,99608.28
2023-04-24T13:19:39.107Z,99601.09
2023-04-24T13:22:28.285Z,99602.19
2023-04-24T13:25:18.206Z,99599.13
2023-04-24T13:28:07.174Z,99598.66
2023-04-24T13:30:57.011Z,99590.47
2023-04-24T13:33:45.675Z,99576.09
2023-04-24T13:36:34.400Z,99576.41
2023-04-24T13:39:23.018Z,99589.41
2023-04-24T13:42:11.802Z,99580.72
2023-04-24T13:45:02.273Z,99592.34
2023-04-24T13:47:54.734Z,99582.72
2023-04-24T13:50:43.805Z,99584.69
2023-04-24T13:53:33.233Z,99588.41
2023-04-24T13:56:21.862Z,99595.38
2023-04-24T13:59:10.590Z,99588.06
2023-04-24T14:01:59.156Z,99592.44
2023-04-24T14:04:49.322Z,99585.75
2023-04-24T14:07:38.332Z,99577.00
2023-04-24T14:10:28.054Z,99582.69
2023-04-24T14:13:16.544Z,99580.56
2023-04-24T14:16:05.329Z,99573.13
2023-04-24T14:18:53.863Z,99588.66
2023-04-24T14:21:43.716Z,99571.06
2023-04-24T14:24:32.135Z,99588.81
2023-04-24T14:27:20.624Z,99599.66
2023-04-24T14:30:10.109Z,99611.63
2023-04-24T14:32:58.663Z,99588.84
2023-04-24T14:35:48.308Z,99523.78
2023-04-24T14:38:38.146Z,99578.97
2023-04-24T14:41:26.585Z,99548.84
2023-04-24T14:44:15.073Z,99574.44
2023-04-24T14:47:03.766Z,99575.97
2023-04-24T14:49:52.341Z,99567.81
2023-04-24T14:52:41.216Z,99560.50
2023-04-24T14:55:31.252Z,99566.22
2023-04-24T14:58:19.882Z,99574.78
2023-04-24T15:01:08.420Z,99572.63
2023-04-24T15:03:57.037Z,99577.75
2023-04-24T15:06:45.535Z,99573.84
2023-04-24T15:09:34.032Z,99567.78
2023-04-24T15:12:24.051Z,99571.81
2023-04-24T15:15:12.738Z,99573.38
2023-04-24T15:18:01.314Z,99573.09
2023-04-24T15:20:50.034Z,99568.53
2023-04-24T15:23:38.494Z,99572.78
2023-04-24T15:26:27.539Z,99567.19
2023-04-24T15:29:17.398Z,99573.19
2023-04-24T15:32:08.235Z,99568.59
2023-04-24T15:35:07.710Z,99569.06
2023-04-24T15:37:57.396Z,99563.38
2023-04-24T15:40:46.469Z,99569.56
2023-04-24T15:43:35.527Z,99559.97
2023-04-24T15:46:25.500Z,99563.38
2023-04-24T15:49:14.040Z,99539.69
2023-04-24T15:52:02.496Z,99574.25
2023-04-24T15:54:51.119Z,99568.28
2023-04-24T15:57:39.836Z,99550.44
2023-04-24T16:00:33.935Z,99557.22
2023-04-24T16:03:23.955Z,99564.00
2023-04-24T16:06:12.588Z,99558.72
2023-04-24T16:09:03.448Z,99555.66
2023-04-24T16:11:52.252Z,99554.28
2023-04-24T16:14:40.775Z,99562.91
2023-04-24T16:17:29.226Z,99553.69
2023-04-24T16:20:19.430Z,99556.06
2023-04-24T16:23:07.937Z,99563.06
2023-04-24T16:25:56.432Z,99573.75
2023-04-24T16:28:44.939Z,99573.03
2023-04-24T16:31:33.578Z,99568.13
2023-04-24T16:34:22.246Z,99571.28
2023-04-24T16:37:12.448Z,99563.91
2023-04-24T16:40:01.137Z,99563.19
2023-04-24T16:42:50.132Z,99562.13
2023-04-24T16:45:38.572Z,99560.13
2023-04-24T16:48:27.169Z,99568.69
2023-04-24T16:51:15.897Z,99562.59
2023-04-24T16:54:05.901Z,99569.59
2023-04-24T16:56:54.812Z,99568.75
2023-04-24T16:59:43.293Z,99558.63
2023-04-24T17:02:32.035Z,99562.91
2023-04-24T17:05:23.356Z,99560.56
2023-04-24T17:08:11.966Z,99568.72
2023-04-24T17:11:01.846Z,99573.13
2023-04-24T17:13:50.318Z,99566.50
2023-04-24T17:16:40.312Z,99573.22
2023-04-24T17:19:28.905Z,99586.78
2023-04-24T17:22:17.418Z,99578.66
2023-04-24T17:25:06.626Z,99578.44
2023-04-24T17:27:56.563Z,99578.75
2023-04-24T17:30:45.078Z,99587.63
2023-04-24T17:33:33.618Z,99565.13
2023-04-24T17:36:22.089Z,99581.00
2023-04-24T17:39:10.915Z,99577.75
2023-04-24T17:41:59.383Z,99591.00
2023-04-24T17:44:49.286Z,99587.44
2023-04-24T17:47:37.872Z,99584.81
2023-04-24T17:50:26.725Z,99595.56
2023-04-24T17:53:15.332Z,99588.19
2023-04-24T17:56:03.994Z,99584.28
2023-04-24T17:58:52.757Z,99587.78
2023-04-24T18:01:42.732Z,99592.31
2023-04-24T18:04:31.425Z,99586.94
2023-04-24T18:07:20.070Z,99593.16
2023-04-24T18:10:09.590Z,99582.41
2023-04-24T18:12:58.469Z,99589.06
2023-04-24T18:15:46.901Z,99557.84
2023-04-24T18:18:36.726Z,99593.59
2023-04-24T18:21:25.184Z,99598.75
2023-04-24T18:24:13.706Z,99596.06
2023-04-24T18:27:02.228Z,99581.13
2023-04-24T18:29:50.745Z,99595.88
2023-04-24T18:32:39.500Z,99591.13
2023-04-24T18:35:29.434Z,99609.31
2023-04-24T18:38:17.967Z,99603.16
2023-04-24T18:41:06.492Z,99606.69
2023-04-24T18:43:57.945Z,99613.13
2023-04-24T18:46:46.586Z,99607.75
2023-04-24T18:49:35.305Z,99608.19
2023-04-24T18:52:25.882Z,99616.25
2023-04-24T18:55:14.714Z,99610.47
2023-04-24T18:58:03.337Z,99618.53
2023-04-24T19:00:51.826Z,99627.84
2023-04-24T19:03:40.400Z,99627.69
2023-04-24T19:06:28.946Z,99624.00
2023-04-24T19:09:19.096Z,99629.59
2023-04-24T19:12:07.590Z,99624.88
2023-04-24T19:14:57.888Z,99620.16
2023-04-24T19:17:48.598Z,99634.00
2023-04-24T19:20:37.172Z,99637.97
2023-04-24T19:23:25.693Z,99650.59
2023-04-24T19:26:15.598Z,99646.66
2023-04-24T19:29:04.476Z,99653.88
2023-04-24T19:31:54.549Z,99653.50
2023-04-24T19:34:43.142Z,99651.03
2023-04-24T19:37:32.231Z,99644.50
2023-04-24T19:40:20.773Z,99660.53
2023-04-24T19:43:10.699Z,99651.28
2023-04-24T19:45:59.186Z,99643.22
2023-04-24T19:48:47.839Z,99649.00
2023-04-24T19:51:37.658Z,99644.63
2023-04-24T19:54:26.619Z,99634.97
2023-04-24T19:57:15.126Z,99652.44
2023-04-24T20:00:05.595Z,99639.47
2023-04-24T20:02:54.181Z,99639.25
2023-04-24T20:05:42.819Z,99638.22
2023-04-24T20:08:31.387Z,99639.66
2023-04-24T20:11:19.880Z,99645.25
2023-04-24T20:14:08.412Z,99646.91
2023-04-24T20:16:58.264Z,99633.50
2023-04-24T20:19:46.779Z,99641.31
2023-04-24T20:22:38.881Z,99606.25
2023-04-24T20:25:27.355Z,99664.25
2023-04-24T20:28:17.275Z,99651.91
2023-04-24T20:31:05.930Z,99652.28
2023-04-24T20:33:55.786Z,99648.94
2023-04-24T20:36:48.741Z,99647.91
2023-04-24T20:39:38.766Z,99644.63
2023-04-24T20:42:27.393Z,99641.53
2023-04-24T20:45:17.742Z,99639.69
2023-04-24T20:48:08.232Z,99632.06
2023-04-24T20:50:58.310Z,99627.56
2023-04-24T20:53:49.511Z,99626.94
2023-04-24T20:56:38.061Z,99632.72
2023-04-24T20:59:26.535Z,99591.47
2023-04-24T21:02:15.006Z,99619.38
2023-04-24T21:05:04.341Z,99631.91
2023-04-24T21:07:56.014Z,99625.94
2023-04-24T21:10:47.183Z,99627.00
2023-04-24T21:13:35.683Z,99611.13
2023-04-24T21:16:24.200Z,99618.19
2023-04-24T21:19:12.746Z,99623.94
2023-04-24T21:22:01.269Z,99611.56
2023-04-24T21:24:51.151Z,99608.47
2023-04-24T21:27:39.806Z,99603.78
2023-04-24T21:30:28.361Z,99599.66
2023-04-24T21:33:17.016Z,99604.22
2023-04-24T21:36:06.030Z,99593.94
2023-04-24T21:38:54.555Z,99592.69
2023-04-24T21:41:45.423Z,99589.63
2023-04-24T21:44:33.929Z,99563.34
2023-04-24T21:47:22.366Z,99585.53
2023-04-24T21:50:11.726Z,99575.88
2023-04-24T21:53:00.219Z,99573.63
2023-04-24T21:55:48.694Z,99578.38
2023-04-24T21:58:38.871Z,99566.88
2023-04-24T22:01:27.451Z,99575.72
2023-04-24T22:04:16.276Z,99573.88
2023-04-24T22:07:05.084Z,99580.25
2023-04-24T22:09:54.031Z,99583.34
2023-04-24T22:12:44.434Z,99572.06
2023-04-24T22:15:34.282Z,99572.28
2023-04-24T22:18:24.558Z,99572.69
2023-04-24T22:21:14.858Z,99583.78
2023-04-24T22:24:03.310Z,99583.97
2023-04-24T22:26:51.781Z,99588.50
2023-04-24T22:29:40.354Z,99592.25
2023-04-24T22:32:32.924Z,99582.63
2023-04-24T22:35:21.413Z,99583.41
2023-04-24T22:38:09.890Z,99592.06
2023-04-24T22:40:58.340Z,99579.53
2023-04-24T22:43:47.058Z,99570.88
2023-04-24T22:46:35.681Z,99587.16
2023-04-24T22:49:27.137Z,99587.38
2023-04-24T22:52:17.089Z,99583.47
2023-04-24T22:55:06.906Z,99565.81
2023-04-24T22:57:57.530Z,99587.03
2023-04-24T23:00:46.080Z,99586.19
2023-04-24T23:03:35.672Z,99593.41
2023-04-24T23:06:25.990Z,99588.50
2023-04-24T23:09:14.512Z,99573.72
2023-04-24T23:12:04.369Z,99575.16
2023-04-24T23:14:52.878Z,99571.66
2023-04-24T23:17:41.847Z,99567.13
2023-04-24T23:20:30.335Z,99570.81
2023-04-24T23:23:20.307Z,99574.94
2023-04-24T23:26:08.798Z,99566.72
2023-04-24T23:28:57.255Z,99567.97
2023-04-24T23:31:45.846Z,99561.38
2023-04-24T23:34:37.837Z,99555.81
2023-04-24T23:37:26.380Z,99559.94
2023-04-24T23:40:16.328Z,99554.59
2023-04-24T23:43:07.859Z,99545.75
2023-04-24T23:45:57.098Z,99540.22
2023-04-24T23:48:45.607Z,99551.50
2023-04-24T23:51:34.098Z,99539.19
2023-04-24T23:54:22.658Z,99550.09
2023-04-24T23:57:12.478Z,99551.72
